Stations météo

Publicité
Chateau Chinon, France (7270): Température de l'air & dewpoint: 18.02.2020 22:00:00 - 24.02.2020 22:00:00 (CET)Chateau Chinon, France (7270): Vitesse du vent & gusts: 18.02.2020 22:00:00 - 24.02.2020 22:00:00 (CET)Chateau Chinon, France (7270): Direction du vent: 18.02.2020 22:00:00 - 24.02.2020 22:00:00 (CET)Chateau Chinon, France (7270): Quantités de précipitations: 18.02.2020 22:00:00 - 24.02.2020 22:00:00 (CET)
Date & Time tt [°C] td [°C] ff [km/h] ff [knt] fx [km/h] fx [knt] dd rr [mm]
24.02.2020 22:00:00 - - - - - - - -
24.02.2020 21:00:00 8,0 6,5 4 2 18 10 WNW 0,0
24.02.2020 20:00:00 10,3 4,2 4 2 34 18 WNW 0,0
24.02.2020 19:00:00 10,8 5,1 8 4 34 18 W -
24.02.2020 18:00:00 12,1 6,2 5 3 28 15 W 0,0
24.02.2020 17:00:00 13,1 8,0 8 4 28 15 WSW 0,0
24.02.2020 16:00:00 13,9 8,3 8 4 31 17 W 0,0
24.02.2020 15:00:00 12,7 10,2 4 2 24 13 W 0,0
24.02.2020 14:00:00 10,2 10,0 4 2 24 13 W 0,0
24.02.2020 13:00:00 8,0 7,9 5 3 28 15 WSW -
24.02.2020 12:00:00 7,2 7,2 5 3 26 14 WSW 0,0
24.02.2020 11:00:00 7,0 7,0 8 4 22 12 WSW 0,0
24.02.2020 10:00:00 6,8 6,8 4 2 22 12 WNW 0,0
24.02.2020 09:00:00 6,5 6,5 4 2 22 12 WNW 0,0
24.02.2020 08:00:00 6,5 6,5 4 2 21 11 WNW 0,2
24.02.2020 07:00:00 6,7 6,7 4 2 16 9 WNW -
24.02.2020 06:00:00 6,9 6,9 4 2 15 8 NW 0,2
24.02.2020 05:00:00 7,0 7,0 2 1 9 5 NW 0,4
24.02.2020 04:00:00 7,0 7,0 2 1 21 11 WNW 0,2
24.02.2020 03:00:00 7,1 7,0 5 3 24 13 W 0,0
24.02.2020 02:00:00 7,3 7,2 4 2 18 10 WNW 0,2
24.02.2020 01:00:00 7,5 7,4 4 2 18 10 WNW -
24.02.2020 00:00:00 7,5 7,4 2 1 18 10 WNW 0,0
23.02.2020 23:00:00 7,6 7,3 4 2 15 8 N 0,0
23.02.2020 22:00:00 7,7 7,1 4 2 15 8 WNW 0,0
23.02.2020 21:00:00 7,9 7,0 4 2 18 10 NW 0,0
23.02.2020 20:00:00 8,7 7,0 5 3 28 15 WNW 0,0
23.02.2020 19:00:00 9,3 6,7 5 3 26 14 W -
23.02.2020 18:00:00 10,0 6,7 5 3 22 12 WNW 0,0
23.02.2020 17:00:00 11,2 6,5 4 2 29 16 NW 0,0
23.02.2020 16:00:00 12,1 6,6 4 2 26 14 NW 0,0
23.02.2020 15:00:00 14,9 7,0 8 4 26 14 W 0,0
23.02.2020 14:00:00 12,3 5,7 8 4 34 18 W 0,0
23.02.2020 13:00:00 11,8 4,7 9 5 35 19 W -
23.02.2020 12:00:00 10,8 3,8 8 4 39 21 W 0,0
23.02.2020 11:00:00 9,7 3,9 8 4 42 23 WSW 0,0
23.02.2020 10:00:00 8,7 3,5 5 3 34 18 W 0,0
23.02.2020 09:00:00 6,4 2,8 8 4 29 16 W 0,0
23.02.2020 08:00:00 4,4 3,8 11 6 22 12 SW 0,0
23.02.2020 07:00:00 4,7 4,1 5 3 29 16 W -
23.02.2020 06:00:00 5,0 4,4 4 2 22 12 WNW 0,0
23.02.2020 05:00:00 5,5 4,8 4 2 29 16 WNW 0,0
23.02.2020 04:00:00 5,6 4,7 5 3 22 12 W 0,0
23.02.2020 03:00:00 5,7 4,3 4 2 18 10 WNW 0,0
23.02.2020 02:00:00 5,7 4,2 4 2 26 14 NNW 0,0
23.02.2020 01:00:00 6,1 4,1 8 4 26 14 W -
23.02.2020 00:00:00 6,0 3,2 2 1 21 11 NW 0,0
22.02.2020 23:00:00 6,4 2,1 4 2 16 9 NW 0,0
22.02.2020 22:00:00 7,0 1,9 4 2 18 10 WNW 0,0
22.02.2020 21:00:00 7,9 1,7 5 3 18 10 WNW 0,0
22.02.2020 20:00:00 7,9 1,5 5 3 22 12 WNW 0,0
22.02.2020 19:00:00 7,4 1,7 8 4 24 13 WSW -
22.02.2020 18:00:00 8,0 1,8 5 3 26 14 W 0,0
22.02.2020 17:00:00 9,7 1,8 5 3 18 10 W 0,0
22.02.2020 16:00:00 11,1 2,9 8 4 31 17 W 0,0
22.02.2020 15:00:00 10,7 2,5 8 4 26 14 W 0,0
22.02.2020 14:00:00 9,8 2,2 5 3 22 12 W 0,0
22.02.2020 13:00:00 9,3 1,2 8 4 24 13 WSW -
22.02.2020 12:00:00 7,7 1,1 4 2 15 8 WNW 0,0
22.02.2020 11:00:00 7,2 1,3 5 3 26 14 W 0,0
22.02.2020 10:00:00 5,8 -0,1 5 3 31 17 WSW 0,0
22.02.2020 09:00:00 4,2 -0,2 8 4 22 12 S 0,0
22.02.2020 08:00:00 2,8 -1,4 9 5 22 12 SSW 0,0
22.02.2020 07:00:00 3,0 -1,4 11 6 24 13 SSW -
22.02.2020 06:00:00 2,7 -1,1 9 5 22 12 SSW 0,0
22.02.2020 05:00:00 1,7 -2,1 5 3 18 10 SSW 0,0
22.02.2020 04:00:00 1,1 -1,8 4 2 16 9 W 0,0
22.02.2020 03:00:00 3,0 -1,7 9 5 21 11 SSW 0,0
22.02.2020 02:00:00 2,2 -1,6 5 3 13 7 SSW 0,0
22.02.2020 01:00:00 1,7 -1,4 8 4 11 6 SSE -
22.02.2020 00:00:00 2,3 -1,0 4 2 9 5 S 0,0
21.02.2020 23:00:00 1,4 -1,5 0 0 5 3 N 0,0
21.02.2020 22:00:00 2,2 -1,2 0 0 9 5 N 0,0
21.02.2020 21:00:00 2,5 -1,1 4 2 11 6 S 0,0
21.02.2020 20:00:00 3,0 -1,0 4 2 9 5 SSW 0,0
21.02.2020 19:00:00 2,6 -1,2 2 1 8 4 W -
21.02.2020 18:00:00 4,4 -0,4 4 2 8 4 W 0,0
21.02.2020 17:00:00 6,4 -0,6 2 1 15 8 WNW 0,0
21.02.2020 16:00:00 7,8 -0,9 5 3 15 8 W 0,0
21.02.2020 15:00:00 7,7 -1,0 4 2 15 8 WNW 0,0
21.02.2020 14:00:00 7,1 -2,6 4 2 11 6 WNW 0,0
21.02.2020 13:00:00 6,8 -2,6 4 2 13 7 W -
21.02.2020 12:00:00 6,0 -1,6 4 2 13 7 W 0,0
21.02.2020 11:00:00 5,1 1,4 2 1 9 5 NW 0,2
21.02.2020 10:00:00 3,4 1,8 4 2 13 7 SSE 0,0
21.02.2020 09:00:00 1,0 0,7 5 3 13 7 ESE 0,0
21.02.2020 08:00:00 0,7 0,4 2 1 8 4 NE 0,0
21.02.2020 07:00:00 1,0 0,7 2 1 9 5 WNW -
21.02.2020 06:00:00 0,7 0,1 4 2 8 4 WNW 0,0
21.02.2020 05:00:00 1,7 1,1 4 2 13 7 WNW 0,0
21.02.2020 04:00:00 1,9 1,3 4 2 15 8 WNW 0,0
21.02.2020 03:00:00 1,9 1,2 4 2 18 10 WNW 0,0
21.02.2020 02:00:00 2,4 1,2 5 3 22 12 WNW 0,0
21.02.2020 01:00:00 3,0 1,4 9 5 35 19 NW -
21.02.2020 00:00:00 4,2 3,3 8 4 35 19 WNW 0,0
20.02.2020 23:00:00 5,8 5,2 4 2 31 17 WNW 1,0
20.02.2020 22:00:00 6,6 4,3 8 4 39 21 WNW 0,0
20.02.2020 21:00:00 6,8 3,6 8 4 34 18 WNW 0,0
20.02.2020 20:00:00 6,7 3,1 8 4 31 17 WNW 0,0
20.02.2020 19:00:00 6,7 3,1 5 3 24 13 WNW -
20.02.2020 18:00:00 6,9 2,8 4 2 24 13 NW 0,0
20.02.2020 17:00:00 8,1 3,0 5 3 28 15 NNW 0,0
20.02.2020 16:00:00 9,0 3,4 4 2 29 16 WNW 0,0
20.02.2020 15:00:00 8,4 3,8 5 3 29 16 WNW 0,0
20.02.2020 14:00:00 7,7 4,1 5 3 29 16 WNW 0,0
20.02.2020 13:00:00 8,4 4,4 8 4 35 19 W -
20.02.2020 12:00:00 6,7 4,4 4 2 26 14 WNW 0,0
20.02.2020 11:00:00 6,4 4,9 5 3 26 14 W 0,0
20.02.2020 10:00:00 4,8 4,2 8 4 29 16 WSW 0,0
20.02.2020 09:00:00 4,3 4,2 8 4 31 17 W 0,0
20.02.2020 08:00:00 4,1 4,0 9 5 31 17 WSW 0,0
20.02.2020 07:00:00 4,1 4,0 8 4 29 16 WSW -
20.02.2020 06:00:00 4,3 4,2 5 3 24 13 W 0,0
20.02.2020 05:00:00 4,6 4,5 5 3 29 16 W 0,0
20.02.2020 04:00:00 4,8 4,7 5 3 24 13 W 0,0
20.02.2020 03:00:00 4,8 4,7 5 3 22 12 W 0,0
20.02.2020 02:00:00 4,8 4,7 4 2 28 15 WNW 0,0
20.02.2020 01:00:00 4,7 4,6 8 4 31 17 WSW -
20.02.2020 00:00:00 4,3 4,0 11 6 28 15 SSW 1,0
19.02.2020 23:00:00 4,6 3,4 8 4 29 16 WSW 0,4
19.02.2020 22:00:00 4,5 2,7 9 5 21 11 SSW 0,0
19.02.2020 21:00:00 4,5 3,0 8 4 22 12 SW 0,0
19.02.2020 20:00:00 4,0 2,8 4 2 13 7 W 0,2
19.02.2020 19:00:00 4,3 3,1 2 1 8 4 NW -
19.02.2020 18:00:00 4,8 2,5 0 0 11 6 N 0,0
19.02.2020 17:00:00 5,0 2,7 2 1 13 7 NNW 0,0
19.02.2020 16:00:00 5,0 2,4 2 1 22 12 WNW 0,0
19.02.2020 15:00:00 6,6 2,3 4 2 15 8 W 0,0
19.02.2020 14:00:00 5,9 2,0 4 2 21 11 WNW 0,0
19.02.2020 13:00:00 5,3 1,8 4 2 22 12 NW -
19.02.2020 12:00:00 5,3 3,0 4 2 16 9 NW 0,0
19.02.2020 11:00:00 3,9 3,2 4 2 22 12 WNW 0,0
19.02.2020 10:00:00 3,2 3,1 5 3 18 10 WNW 0,0
19.02.2020 09:00:00 3,8 3,8 4 2 16 9 WNW 0,0
19.02.2020 08:00:00 3,6 3,6 4 2 34 18 W 0,4
19.02.2020 07:00:00 4,1 4,1 5 3 34 18 NNW -
19.02.2020 06:00:00 3,8 3,8 8 4 37 20 WNW 1,0
19.02.2020 05:00:00 3,5 3,4 9 5 46 25 WNW 1,0
19.02.2020 04:00:00 3,3 3,2 9 5 48 26 WNW 1,0
19.02.2020 03:00:00 3,5 3,2 9 5 41 22 W 0,2
19.02.2020 02:00:00 3,4 3,0 8 4 41 22 WNW 0,0
19.02.2020 01:00:00 3,6 2,9 9 5 41 22 W -
19.02.2020 00:00:00 3,9 2,7 8 4 44 24 WNW 0,0
18.02.2020 23:00:00 4,4 2,6 9 5 35 19 W 0,0
18.02.2020 22:00:00 4,2 2,7 8 4 44 24 W 0,0

tt = Température de l'air
td = dewpoint
ff = Vitesse du vent
fx = gusts
dd = Direction du vent
rr = Quantités de précipitations

stations d'obs. à proximité